Oreana, Idaho
Current Conditions -  °F | °C
As of 11:35 PM on Wednesday 22 Oct 2014 (Local Time) from KMAN Reporting Station
Overcast Overcast  
Wind Chill: 55°   Ceiling: 5000
Heat Index: 55°   Visibility: 10mi
Dew Point: 39°   Wind: 5mph
Humidity: 54%   Direction: 140°SE
Pressure: 30.03"   Gusts: NA
Location:  42.9915°N, 116.705°W
Report Text: KMAN 230535Z AUTO 14004KT 10SM BKN050 OVC065 13/04 A3003 RMK AO1
Loading
Personal Weather Stations






























Interactive Weather Map
Tropical Storm Tracking
New forecast layout! Learn more

10-Day Weather Forecast

Advertisements
Track Severe Weather on mobile